createdAt,value
2023-07-01T00:00:09.944Z,99.99
2023-07-01T00:01:09.931Z,99.99
2023-07-01T00:02:10.039Z,99.99
2023-07-01T00:03:09.910Z,99.99
2023-07-01T00:04:10.008Z,99.99
2023-07-01T00:05:09.979Z,99.99
2023-07-01T00:06:09.875Z,99.99
2023-07-01T00:07:09.862Z,99.99
2023-07-01T00:08:09.877Z,99.99
2023-07-01T00:09:09.819Z,99.99
2023-07-01T00:10:09.819Z,99.99
2023-07-01T00:11:09.792Z,99.99
2023-07-01T00:12:09.797Z,99.99
2023-07-01T00:13:09.796Z,99.99
2023-07-01T00:14:09.769Z,99.99
2023-07-01T00:15:09.747Z,99.99
2023-07-01T00:16:09.764Z,99.99
2023-07-01T00:17:09.739Z,99.99
2023-07-01T00:18:09.760Z,99.99
2023-07-01T00:19:09.696Z,99.99
2023-07-01T00:20:09.686Z,99.99
2023-07-01T00:21:09.668Z,99.99
2023-07-01T00:22:09.709Z,99.99
2023-07-01T00:23:09.640Z,99.99
2023-07-01T00:24:09.660Z,99.99
2023-07-01T00:25:09.616Z,99.99
2023-07-01T00:26:09.614Z,99.99
2023-07-01T00:27:09.610Z,99.99
2023-07-01T00:28:09.581Z,99.99
2023-07-01T00:29:09.592Z,99.99
2023-07-01T00:30:09.569Z,99.99
2023-07-01T00:31:09.618Z,99.99
2023-07-01T00:32:09.634Z,99.99
2023-07-01T00:33:09.606Z,99.99
2023-07-01T00:34:09.509Z,99.99
2023-07-01T00:35:09.488Z,99.99
2023-07-01T00:36:09.494Z,99.99
2023-07-01T00:37:09.473Z,99.99
2023-07-01T00:38:09.441Z,99.99
2023-07-01T00:39:09.432Z,99.99
2023-07-01T00:40:09.420Z,99.99
2023-07-01T00:41:09.424Z,99.99
2023-07-01T00:42:09.399Z,99.99
2023-07-01T00:43:09.390Z,99.99
2023-07-01T00:44:09.384Z,99.99
2023-07-01T00:45:09.379Z,99.99
2023-07-01T00:46:09.382Z,99.99
2023-07-01T00:47:09.482Z,99.99
2023-07-01T00:48:09.317Z,99.99
2023-07-01T00:49:09.301Z,99.99
2023-07-01T00:50:09.302Z,99.99
2023-07-01T00:51:09.302Z,99.99
2023-07-01T00:52:09.273Z,99.99
2023-07-01T00:53:09.281Z,99.99
2023-07-01T00:54:09.256Z,99.99
2023-07-01T00:55:09.231Z,99.99
2023-07-01T00:56:09.249Z,99.99
2023-07-01T00:57:09.217Z,99.99
2023-07-01T00:58:09.192Z,99.99
2023-07-01T00:59:09.183Z,99.99
2023-07-01T01:00:09.161Z,99.99
2023-07-01T01:01:09.268Z,99.99
2023-07-01T01:02:09.173Z,99.99
2023-07-01T01:03:09.231Z,99.99
2023-07-01T01:04:09.144Z,99.99
2023-07-01T01:05:09.090Z,99.99
2023-07-01T01:06:09.089Z,99.99
2023-07-01T01:07:09.071Z,99.99
2023-07-01T01:08:09.067Z,99.99
2023-07-01T01:09:09.073Z,99.99
2023-07-01T01:10:09.098Z,99.99
2023-07-01T01:11:09.012Z,99.99
2023-07-01T01:12:09.008Z,99.99
2023-07-01T01:13:08.987Z,99.99
2023-07-01T01:14:08.965Z,99.99
2023-07-01T01:15:08.953Z,99.99
2023-07-01T01:16:08.957Z,99.99
2023-07-01T01:17:08.939Z,99.99
2023-07-01T01:18:09.281Z,99.99
2023-07-01T01:19:08.909Z,99.99
2023-07-01T01:20:08.896Z,99.99
2023-07-01T01:21:08.878Z,99.99
2023-07-01T01:22:08.878Z,99.99
2023-07-01T01:23:08.879Z,99.99
2023-07-01T01:24:08.850Z,99.99
2023-07-01T01:25:08.866Z,99.99
2023-07-01T01:26:08.850Z,99.99
2023-07-01T01:27:08.833Z,99.99
2023-07-01T01:28:08.782Z,99.99
2023-07-01T01:29:08.783Z,99.99
2023-07-01T01:30:08.778Z,99.99
2023-07-01T01:31:08.791Z,99.99
2023-07-01T01:32:08.758Z,99.99
2023-07-01T01:33:08.727Z,99.99
2023-07-01T01:34:08.716Z,99.99
2023-07-01T01:35:08.700Z,99.99
2023-07-01T01:36:08.711Z,99.99
2023-07-01T01:37:08.678Z,99.99
2023-07-01T01:38:08.680Z,99.99
2023-07-01T01:39:08.657Z,99.99
2023-07-01T01:40:08.642Z,99.99
2023-07-01T01:41:08.631Z,99.99
2023-07-01T01:42:08.608Z,99.99
2023-07-01T01:43:08.593Z,99.99
2023-07-01T01:44:08.628Z,99.99
2023-07-01T01:45:08.591Z,99.99
2023-07-01T01:46:08.565Z,99.99
2023-07-01T01:47:08.664Z,99.99
2023-07-01T01:48:08.610Z,99.99
2023-07-01T01:49:08.515Z,99.99
2023-07-01T01:50:08.615Z,99.99
2023-07-01T01:51:08.497Z,99.99
2023-07-01T01:52:08.481Z,99.99
2023-07-01T01:53:08.467Z,99.99
2023-07-01T01:54:08.453Z,99.99
2023-07-01T01:55:08.470Z,99.99
2023-07-01T01:56:08.441Z,99.99
2023-07-01T01:57:08.415Z,99.99
2023-07-01T01:58:08.428Z,99.99
2023-07-01T01:59:08.407Z,99.99
2023-07-01T02:00:08.395Z,99.99
2023-07-01T02:01:08.368Z,99.99
2023-07-01T02:02:08.505Z,99.99
2023-07-01T02:03:08.443Z,99.99
2023-07-01T02:04:08.590Z,99.99
2023-07-01T02:05:08.506Z,99.99
2023-07-01T02:06:08.317Z,99.99
2023-07-01T02:07:08.283Z,99.99
2023-07-01T02:08:08.318Z,99.99
2023-07-01T02:09:08.279Z,99.99
2023-07-01T02:10:08.267Z,99.99
2023-07-01T02:11:08.266Z,99.99
2023-07-01T02:12:08.244Z,99.99
2023-07-01T02:13:08.231Z,99.99
2023-07-01T02:14:08.203Z,99.99
2023-07-01T02:15:08.190Z,99.99
2023-07-01T02:16:08.165Z,99.99
2023-07-01T02:17:08.210Z,99.99
2023-07-01T02:18:08.184Z,99.99
2023-07-01T02:19:08.116Z,99.99
2023-07-01T02:20:08.158Z,99.99
2023-07-01T02:21:08.093Z,99.99
2023-07-01T02:22:08.094Z,99.99
2023-07-01T02:23:08.105Z,99.99
2023-07-01T02:24:08.077Z,99.99
2023-07-01T02:25:08.063Z,99.99
2023-07-01T02:26:08.049Z,99.99
2023-07-01T02:27:08.017Z,99.99
2023-07-01T02:28:08.060Z,99.99
2023-07-01T02:29:07.982Z,99.99
2023-07-01T02:30:07.984Z,99.99
2023-07-01T02:31:08.091Z,99.99
2023-07-01T02:32:08.008Z,99.99
2023-07-01T02:33:08.071Z,99.99
2023-07-01T02:34:07.936Z,99.99
2023-07-01T02:35:07.913Z,99.99
2023-07-01T02:36:07.892Z,99.99
2023-07-01T02:37:08.801Z,99.99
2023-07-01T02:38:07.902Z,99.99
2023-07-01T02:39:07.880Z,99.99
2023-07-01T02:40:07.870Z,99.99
2023-07-01T02:41:07.860Z,99.99
2023-07-01T02:42:07.854Z,99.99
2023-07-01T02:43:07.813Z,99.99
2023-07-01T02:44:07.797Z,99.99
2023-07-01T02:45:07.776Z,99.99
2023-07-01T02:46:07.848Z,99.99
2023-07-01T02:47:07.765Z,99.99
2023-07-01T02:48:07.797Z,99.99
2023-07-01T02:49:07.741Z,99.99
2023-07-01T02:50:07.739Z,99.99
2023-07-01T02:51:07.734Z,99.99
2023-07-01T02:52:07.691Z,99.99
2023-07-01T02:53:07.701Z,99.99
2023-07-01T02:54:07.648Z,99.99
2023-07-01T02:55:07.682Z,99.99
2023-07-01T02:56:07.678Z,99.99
2023-07-01T02:57:07.639Z,99.99
2023-07-01T02:58:07.622Z,99.99
2023-07-01T02:59:07.616Z,99.99
2023-07-01T03:00:07.605Z,99.99
2023-07-01T03:01:07.577Z,99.99
2023-07-01T03:02:07.651Z,99.99
2023-07-01T03:03:08.046Z,99.99
2023-07-01T03:04:19.754Z,99.99
2023-07-01T03:05:08.573Z,99.99
2023-07-01T03:06:07.515Z,99.99
2023-07-01T03:07:07.494Z,99.99
2023-07-01T03:08:07.496Z,99.99
2023-07-01T03:09:07.498Z,99.82
2023-07-01T03:10:07.476Z,99.72
2023-07-01T03:11:07.454Z,99.52
2023-07-01T03:12:07.426Z,98.70
2023-07-01T03:13:07.413Z,98.91
2023-07-01T03:14:07.439Z,99.16
2023-07-01T03:15:07.392Z,98.55
2023-07-01T03:16:07.527Z,98.55
2023-07-01T03:17:07.700Z,98.25
2023-07-01T03:18:07.402Z,98.35
2023-07-01T03:19:07.353Z,98.55
2023-07-01T03:20:07.325Z,98.75
2023-07-01T03:21:07.305Z,98.55
2023-07-01T03:22:07.340Z,97.89
2023-07-01T03:23:07.370Z,98.30
2023-07-01T03:24:07.288Z,97.80
2023-07-01T03:25:07.403Z,97.60
2023-07-01T03:26:07.262Z,97.29
2023-07-01T03:27:07.314Z,97.80
2023-07-01T03:28:07.238Z,97.39
2023-07-01T03:29:07.229Z,97.80
2023-07-01T03:30:07.202Z,97.19
2023-07-01T03:31:07.222Z,97.08
2023-07-01T03:32:07.202Z,96.98
2023-07-01T03:33:07.218Z,96.58
2023-07-01T03:34:07.148Z,96.58
2023-07-01T03:35:07.128Z,96.17
2023-07-01T03:36:07.192Z,96.07
2023-07-01T03:37:07.128Z,95.76
2023-07-01T03:38:07.112Z,96.12
2023-07-01T03:39:07.093Z,95.62
2023-07-01T03:40:07.096Z,95.72
2023-07-01T03:41:07.087Z,96.33
2023-07-01T03:42:07.050Z,95.82
2023-07-01T03:43:07.096Z,95.10
2023-07-01T03:44:07.016Z,94.80
2023-07-01T03:45:07.003Z,94.70
2023-07-01T03:46:07.012Z,94.80
2023-07-01T03:47:15.674Z,95.21
2023-07-01T03:48:07.069Z,95.01
2023-07-01T03:49:06.945Z,94.80
2023-07-01T03:50:06.946Z,94.70
2023-07-01T03:51:06.924Z,95.62
2023-07-01T03:52:06.922Z,94.90
2023-07-01T03:53:06.896Z,95.01
2023-07-01T03:54:06.867Z,95.21
2023-07-01T03:55:06.863Z,94.80
2023-07-01T03:56:06.862Z,94.29
2023-07-01T03:57:06.840Z,95.10
2023-07-01T03:58:06.824Z,94.90
2023-07-01T03:59:06.808Z,94.60
2023-07-01T04:00:06.793Z,94.20
2023-07-01T04:01:06.808Z,94.80
2023-07-01T04:02:06.769Z,94.40
2023-07-01T04:03:06.968Z,94.80
2023-07-01T04:04:06.833Z,94.50
2023-07-01T04:05:06.748Z,94.60
2023-07-01T04:06:06.718Z,95.10
2023-07-01T04:07:06.716Z,95.10
2023-07-01T04:08:06.690Z,94.60
2023-07-01T04:09:06.678Z,94.09
2023-07-01T04:10:06.719Z,93.99
2023-07-01T04:11:06.653Z,94.40
2023-07-01T04:12:06.668Z,94.09
2023-07-01T04:13:06.641Z,93.79
2023-07-01T04:14:06.608Z,93.99
2023-07-01T04:15:06.621Z,93.99
2023-07-01T04:16:06.585Z,93.48
2023-07-01T04:17:06.679Z,93.99
2023-07-01T04:18:06.570Z,93.68
2023-07-01T04:19:06.565Z,93.89
2023-07-01T04:20:06.539Z,93.99
2023-07-01T04:21:06.521Z,93.79
2023-07-01T04:22:06.517Z,94.29
2023-07-01T04:23:06.500Z,93.79
2023-07-01T04:24:06.492Z,94.09
2023-07-01T04:25:06.469Z,93.79
2023-07-01T04:26:06.451Z,93.48
2023-07-01T04:27:06.440Z,93.99
2023-07-01T04:28:06.421Z,93.74
2023-07-01T04:29:06.422Z,94.35
2023-07-01T04:30:06.409Z,93.84
2023-07-01T04:31:06.403Z,93.64
2023-07-01T04:32:06.382Z,93.64
2023-07-01T04:33:08.426Z,93.74
2023-07-01T04:34:06.357Z,93.33
2023-07-01T04:35:06.341Z,94.10
2023-07-01T04:36:06.323Z,93.60
2023-07-01T04:37:06.309Z,93.80
2023-07-01T04:38:06.308Z,93.29
2023-07-01T04:39:06.280Z,92.74
2023-07-01T04:40:06.264Z,92.03
2023-07-01T04:41:06.269Z,92.24
2023-07-01T04:42:06.247Z,92.09
2023-07-01T04:43:06.248Z,91.28
2023-07-01T04:44:06.229Z,90.77
2023-07-01T04:45:06.211Z,91.03
2023-07-01T04:46:06.207Z,90.12
2023-07-01T04:47:06.275Z,90.18
2023-07-01T04:48:06.216Z,90.18
2023-07-01T04:49:06.208Z,88.51
2023-07-01T04:50:06.202Z,88.72
2023-07-01T04:51:06.158Z,88.27
2023-07-01T04:52:06.172Z,87.46
2023-07-01T04:53:06.170Z,87.32
2023-07-01T04:54:06.144Z,85.60
2023-07-01T04:55:06.115Z,86.00
2023-07-01T04:56:06.089Z,85.05
2023-07-01T04:57:06.108Z,84.75
2023-07-01T04:58:06.137Z,85.16
2023-07-01T04:59:06.036Z,83.64
2023-07-01T05:00:05.999Z,83.50
2023-07-01T05:01:06.088Z,83.29
2023-07-01T05:02:06.037Z,83.80
2023-07-01T05:03:06.270Z,82.69
2023-07-01T05:04:06.117Z,83.70
2023-07-01T05:05:06.101Z,83.09
2023-07-01T05:06:05.946Z,83.05
2023-07-01T05:07:05.923Z,83.46
2023-07-01T05:08:05.918Z,82.85
2023-07-01T05:09:05.970Z,82.85
2023-07-01T05:10:05.868Z,82.75
2023-07-01T05:11:05.882Z,83.96
2023-07-01T05:12:05.849Z,83.32
2023-07-01T05:13:05.841Z,83.22
2023-07-01T05:14:05.813Z,83.32
2023-07-01T05:15:05.828Z,82.61
2023-07-01T05:16:05.872Z,82.71
2023-07-01T05:17:05.782Z,83.68
2023-07-01T05:18:05.828Z,83.12
2023-07-01T05:19:05.754Z,82.91
2023-07-01T05:20:05.750Z,83.98
2023-07-01T05:21:05.739Z,83.12
2023-07-01T05:22:05.725Z,83.28
2023-07-01T05:23:05.711Z,83.88
2023-07-01T05:24:05.682Z,83.88
2023-07-01T05:25:05.717Z,84.29
2023-07-01T05:26:05.667Z,83.78
2023-07-01T05:27:05.656Z,83.38
2023-07-01T05:28:05.625Z,82.87
2023-07-01T05:29:05.627Z,82.73
2023-07-01T05:30:05.639Z,82.73
2023-07-01T05:31:05.631Z,82.39
2023-07-01T05:32:05.579Z,81.68
2023-07-01T05:33:05.614Z,81.75
2023-07-01T05:34:05.572Z,80.33
2023-07-01T05:35:05.649Z,81.91
2023-07-01T05:36:05.533Z,79.36
2023-07-01T05:37:05.531Z,80.16
2023-07-01T05:38:05.533Z,79.18
2023-07-01T05:39:05.513Z,79.08
2023-07-01T05:40:05.470Z,78.78
2023-07-01T05:41:05.465Z,78.27
2023-07-01T05:42:05.473Z,78.17
2023-07-01T05:43:05.444Z,78.91
2023-07-01T05:44:05.456Z,79.96
2023-07-01T05:45:05.458Z,79.36
2023-07-01T05:46:05.468Z,81.47
2023-07-01T05:47:05.392Z,80.77
2023-07-01T05:48:05.452Z,80.16
2023-07-01T05:49:05.376Z,80.16
2023-07-01T05:50:05.342Z,80.26
2023-07-01T05:51:05.340Z,80.16
2023-07-01T05:52:05.319Z,79.96
2023-07-01T05:53:05.334Z,81.13
2023-07-01T05:54:05.290Z,81.33
2023-07-01T05:55:05.292Z,79.88
2023-07-01T05:56:05.261Z,79.68
2023-07-01T05:57:05.268Z,78.14
2023-07-01T05:58:05.254Z,78.80
2023-07-01T05:59:05.238Z,77.96
2023-07-01T06:00:05.239Z,79.17
2023-07-01T06:01:05.203Z,77.86
2023-07-01T06:02:05.229Z,76.86
2023-07-01T06:03:05.272Z,75.45
2023-07-01T06:04:05.211Z,76.15
2023-07-01T06:05:05.295Z,76.65
2023-07-01T06:06:05.125Z,75.89
2023-07-01T06:07:05.152Z,76.19
2023-07-01T06:08:05.103Z,75.18
2023-07-01T06:09:05.091Z,76.19
2023-07-01T06:10:05.089Z,75.09
2023-07-01T06:11:05.099Z,72.84
2023-07-01T06:12:05.072Z,73.94
2023-07-01T06:13:05.044Z,73.18
2023-07-01T06:14:05.037Z,75.29
2023-07-01T06:15:05.016Z,73.84
2023-07-01T06:16:05.063Z,73.14
2023-07-01T06:17:05.025Z,73.21
2023-07-01T06:18:05.013Z,72.60
2023-07-01T06:19:04.959Z,73.30
2023-07-01T06:20:06.212Z,72.56
2023-07-01T06:21:04.968Z,71.97
2023-07-01T06:22:04.923Z,73.17
2023-07-01T06:23:04.914Z,73.03
2023-07-01T06:24:04.893Z,73.13
2023-07-01T06:25:04.912Z,72.53
2023-07-01T06:26:04.891Z,72.24
2023-07-01T06:27:04.869Z,72.03
2023-07-01T06:28:04.854Z,72.10
2023-07-01T06:29:04.838Z,73.21
2023-07-01T06:30:04.837Z,72.20
2023-07-01T06:31:04.893Z,72.90
2023-07-01T06:32:04.847Z,73.41
2023-07-01T06:33:04.831Z,73.17
2023-07-01T06:34:04.766Z,72.67
2023-07-01T06:35:04.778Z,72.77
2023-07-01T06:36:04.751Z,71.77
2023-07-01T06:37:04.728Z,72.56
2023-07-01T06:38:04.787Z,72.90
2023-07-01T06:39:04.717Z,70.16
2023-07-01T06:40:04.700Z,71.12
2023-07-01T06:41:04.674Z,69.42
2023-07-01T06:42:04.676Z,69.49
2023-07-01T06:43:04.664Z,66.62
2023-07-01T06:44:04.648Z,67.32
2023-07-01T06:45:04.663Z,68.62
2023-07-01T06:46:04.660Z,69.99
2023-07-01T06:47:04.612Z,67.96
2023-07-01T06:48:04.612Z,66.75
2023-07-01T06:49:04.594Z,66.25
2023-07-01T06:50:04.570Z,68.86
2023-07-01T06:51:04.568Z,66.02
2023-07-01T06:52:04.547Z,68.93
2023-07-01T06:53:04.558Z,66.69
2023-07-01T06:54:04.538Z,64.39
2023-07-01T06:55:04.493Z,65.29
2023-07-01T06:56:04.469Z,64.76
2023-07-01T06:57:04.465Z,64.16
2023-07-01T06:58:04.463Z,63.56
2023-07-01T06:59:04.451Z,63.93
2023-07-01T07:00:04.419Z,63.70
2023-07-01T07:01:04.487Z,61.73
2023-07-01T07:02:04.405Z,63.26
2023-07-01T07:03:04.468Z,66.03
2023-07-01T07:04:04.430Z,65.13
2023-07-01T07:05:04.356Z,62.89
2023-07-01T07:06:04.336Z,62.39
2023-07-01T07:07:04.344Z,65.12
2023-07-01T07:08:04.355Z,64.03
2023-07-01T07:09:04.329Z,63.82
2023-07-01T07:10:04.305Z,65.05
2023-07-01T07:11:04.282Z,65.45
2023-07-01T07:12:04.292Z,64.45
2023-07-01T07:13:04.266Z,64.06
2023-07-01T07:14:04.239Z,64.59
2023-07-01T07:15:04.235Z,64.98
2023-07-01T07:16:04.258Z,64.28
2023-07-01T07:17:04.218Z,65.89
2023-07-01T07:18:04.242Z,64.69
2023-07-01T07:19:04.197Z,64.01
2023-07-01T07:20:04.168Z,64.72
2023-07-01T07:21:04.170Z,64.34
2023-07-01T07:22:04.138Z,66.15
2023-07-01T07:23:04.130Z,67.32
2023-07-01T07:24:04.104Z,65.22
2023-07-01T07:25:04.098Z,64.75
2023-07-01T07:26:04.093Z,66.25
2023-07-01T07:27:04.072Z,66.45
2023-07-01T07:28:04.057Z,64.95
2023-07-01T07:29:04.054Z,67.25
2023-07-01T07:30:05.771Z,66.35
2023-07-01T07:31:04.075Z,66.45
2023-07-01T07:32:04.037Z,66.35
2023-07-01T07:33:04.027Z,66.05
2023-07-01T07:34:03.974Z,67.05
2023-07-01T07:35:04.001Z,66.52
2023-07-01T07:36:03.958Z,65.65
2023-07-01T07:37:03.956Z,66.85
2023-07-01T07:38:03.934Z,65.75
2023-07-01T07:39:03.953Z,66.85
2023-07-01T07:40:03.938Z,66.92
2023-07-01T07:41:03.979Z,66.55
2023-07-01T07:42:03.900Z,67.32
2023-07-01T07:43:03.880Z,67.62
2023-07-01T07:44:03.916Z,66.99
2023-07-01T07:45:03.915Z,65.69
2023-07-01T07:46:03.836Z,65.28
2023-07-01T07:47:03.865Z,64.89
2023-07-01T07:48:03.820Z,65.69
2023-07-01T07:49:03.833Z,64.89
2023-07-01T07:50:03.794Z,65.89
2023-07-01T07:51:03.764Z,65.66
2023-07-01T07:52:03.833Z,64.72
2023-07-01T07:53:03.762Z,64.22
2023-07-01T07:54:03.737Z,64.86
2023-07-01T07:55:03.702Z,64.36
2023-07-01T07:56:03.698Z,67.63
2023-07-01T07:57:03.677Z,66.13
2023-07-01T07:58:03.828Z,66.29
2023-07-01T07:59:03.661Z,65.39
2023-07-01T08:00:03.640Z,63.59
2023-07-01T08:01:03.632Z,63.72
2023-07-01T08:02:03.730Z,66.32
2023-07-01T08:03:03.680Z,64.22
2023-07-01T08:04:03.614Z,64.22
2023-07-01T08:05:05.032Z,64.45
2023-07-01T08:06:03.606Z,66.96
2023-07-01T08:07:03.562Z,64.86
2023-07-01T08:08:03.584Z,65.86
2023-07-01T08:09:03.541Z,65.75
2023-07-01T08:10:03.602Z,64.86
2023-07-01T08:11:03.552Z,65.69
2023-07-01T08:12:03.595Z,64.89
2023-07-01T08:13:03.501Z,66.49
2023-07-01T08:14:03.445Z,65.31
2023-07-01T08:15:03.455Z,66.22
2023-07-01T08:16:03.430Z,66.62
2023-07-01T08:17:03.490Z,67.29
2023-07-01T08:18:03.436Z,66.19
2023-07-01T08:19:03.449Z,65.95
2023-07-01T08:20:03.400Z,66.66
2023-07-01T08:21:10.884Z,65.66
2023-07-01T08:22:12.072Z,67.09
2023-07-01T08:23:03.330Z,66.59
2023-07-01T08:24:03.316Z,65.89
2023-07-01T08:25:10.843Z,65.92
2023-07-01T08:26:12.014Z,68.22
2023-07-01T08:27:12.197Z,67.59
2023-07-01T08:28:11.960Z,66.39
2023-07-01T08:29:10.756Z,67.99
2023-07-01T08:30:10.754Z,67.36
2023-07-01T08:31:03.231Z,66.05
2023-07-01T08:32:03.226Z,67.46
2023-07-01T08:33:03.242Z,67.02
2023-07-01T08:34:03.208Z,66.63
2023-07-01T08:35:03.197Z,65.62
2023-07-01T08:36:03.189Z,64.45
2023-07-01T08:37:03.708Z,65.16
2023-07-01T08:38:03.142Z,65.16
2023-07-01T08:39:03.115Z,66.16
2023-07-01T08:40:03.129Z,65.55
2023-07-01T08:41:03.107Z,66.36
2023-07-01T08:42:03.089Z,66.36
2023-07-01T08:43:03.080Z,66.25
2023-07-01T08:44:03.067Z,65.05
2023-07-01T08:45:03.063Z,66.55
2023-07-01T08:46:03.131Z,65.59
2023-07-01T08:47:03.054Z,65.16
2023-07-01T08:48:03.044Z,64.89
2023-07-01T08:49:03.085Z,65.99
2023-07-01T08:50:03.960Z,66.16
2023-07-01T08:51:02.966Z,65.59
2023-07-01T08:52:02.960Z,66.05
2023-07-01T08:53:03.019Z,66.66
2023-07-01T08:54:02.957Z,65.66
2023-07-01T08:55:02.934Z,65.25
2023-07-01T08:56:02.929Z,66.32
2023-07-01T08:57:02.884Z,65.72
2023-07-01T08:58:02.910Z,64.25
2023-07-01T08:59:02.885Z,65.83
2023-07-01T09:00:02.861Z,64.83
2023-07-01T09:01:02.854Z,65.12
2023-07-01T09:02:02.970Z,66.42
2023-07-01T09:03:02.885Z,64.69
2023-07-01T09:04:02.863Z,64.52
2023-07-01T09:05:02.899Z,64.79
2023-07-01T09:06:02.845Z,64.19
2023-07-01T09:07:02.782Z,64.89
2023-07-01T09:08:02.774Z,63.79
2023-07-01T09:09:02.747Z,63.59
2023-07-01T09:10:02.754Z,63.26
2023-07-01T09:11:02.791Z,64.46
2023-07-01T09:12:02.725Z,63.03
2023-07-01T09:13:02.702Z,63.23
2023-07-01T09:14:02.671Z,62.23
2023-07-01T09:15:02.675Z,64.13
2023-07-01T09:16:02.659Z,63.23
2023-07-01T09:17:02.671Z,62.81
2023-07-01T09:18:02.667Z,62.60
2023-07-01T09:19:02.645Z,62.01
2023-07-01T09:20:02.600Z,63.50
2023-07-01T09:21:02.572Z,63.47
2023-07-01T09:22:02.587Z,62.74
2023-07-01T09:23:02.566Z,64.44
2023-07-01T09:24:02.559Z,60.25
2023-07-01T09:25:02.604Z,62.71
2023-07-01T09:26:02.533Z,62.68
2023-07-01T09:27:02.517Z,61.58
2023-07-01T09:28:02.495Z,59.25
2023-07-01T09:29:02.470Z,61.18
2023-07-01T09:30:02.499Z,61.57
2023-07-01T09:31:02.442Z,61.80
2023-07-01T09:32:04.134Z,62.01
2023-07-01T09:33:02.482Z,61.73
2023-07-01T09:34:02.421Z,61.87
2023-07-01T09:35:02.439Z,62.37
2023-07-01T09:36:02.402Z,61.96
2023-07-01T09:37:02.385Z,62.86
2023-07-01T09:38:02.380Z,62.96
2023-07-01T09:39:02.381Z,62.37
2023-07-01T09:40:02.334Z,62.37
2023-07-01T09:41:02.327Z,62.16
2023-07-01T09:42:02.328Z,63.06
2023-07-01T09:43:02.322Z,62.76
2023-07-01T09:44:02.461Z,62.66
2023-07-01T09:45:02.254Z,64.06
2023-07-01T09:46:02.301Z,62.86
2023-07-01T09:47:02.246Z,62.56
2023-07-01T09:48:02.274Z,62.86
2023-07-01T09:49:02.223Z,62.16
2023-07-01T09:50:02.202Z,62.46
2023-07-01T09:51:02.201Z,62.86
2023-07-01T09:52:02.210Z,62.70
2023-07-01T09:53:02.174Z,63.59
2023-07-01T09:54:02.152Z,62.56
2023-07-01T09:55:02.174Z,63.26
2023-07-01T09:56:02.173Z,63.26
2023-07-01T09:57:02.118Z,63.23
2023-07-01T09:58:02.091Z,63.40
2023-07-01T09:59:02.077Z,62.90
2023-07-01T10:00:02.085Z,62.13
2023-07-01T10:01:02.092Z,62.90
2023-07-01T10:02:02.074Z,62.63
2023-07-01T10:03:02.184Z,62.83
2023-07-01T10:04:02.160Z,63.43
2023-07-01T10:05:02.060Z,63.43
2023-07-01T10:06:02.041Z,62.53
2023-07-01T10:07:01.985Z,62.93
2023-07-01T10:08:01.968Z,64.03
2023-07-01T10:09:01.956Z,64.33
2023-07-01T10:10:01.961Z,63.80
2023-07-01T10:11:01.946Z,64.30
2023-07-01T10:12:01.922Z,63.40
2023-07-01T10:13:01.898Z,64.03
2023-07-01T10:14:01.901Z,64.63
2023-07-01T10:15:01.869Z,64.03
2023-07-01T10:16:01.856Z,63.73
2023-07-01T10:17:01.886Z,63.93
2023-07-01T10:18:01.971Z,63.73
2023-07-01T10:19:01.843Z,63.63
2023-07-01T10:20:01.828Z,62.73
2023-07-01T10:21:01.824Z,63.66
2023-07-01T10:22:01.779Z,63.06
2023-07-01T10:23:01.805Z,63.66
2023-07-01T10:24:01.754Z,63.96
2023-07-01T10:25:01.737Z,63.19
2023-07-01T10:26:01.731Z,64.06
2023-07-01T10:27:01.745Z,64.06
2023-07-01T10:28:09.320Z,63.36
2023-07-01T10:29:01.837Z,63.83
2023-07-01T10:30:01.815Z,63.73
2023-07-01T10:31:01.698Z,62.73
2023-07-01T10:32:01.670Z,64.03
2023-07-01T10:33:01.755Z,62.63
2023-07-01T10:34:01.636Z,62.83
2023-07-01T10:35:01.596Z,63.33
2023-07-01T10:36:01.638Z,63.06
2023-07-01T10:37:01.582Z,63.36
2023-07-01T10:38:01.622Z,62.56
2023-07-01T10:39:01.552Z,63.66
2023-07-01T10:40:01.633Z,63.23
2023-07-01T10:41:01.570Z,63.63
2023-07-01T10:42:01.540Z,61.24
2023-07-01T10:43:01.583Z,61.83
2023-07-01T10:44:01.614Z,62.63
2023-07-01T10:45:01.496Z,64.13
2023-07-01T10:46:01.467Z,63.03
2023-07-01T10:47:01.458Z,63.23
2023-07-01T10:48:01.490Z,62.53
2023-07-01T10:49:01.418Z,63.83
2023-07-01T10:50:01.446Z,63.93
2023-07-01T10:51:01.424Z,62.73
2023-07-01T10:52:01.404Z,63.23
2023-07-01T10:53:01.383Z,64.10
2023-07-01T10:54:01.452Z,62.53
2023-07-01T10:55:01.351Z,64.13
2023-07-01T10:56:01.374Z,63.17
2023-07-01T10:57:01.327Z,64.53
2023-07-01T10:58:01.365Z,64.13
2023-07-01T10:59:01.285Z,63.86
2023-07-01T11:00:01.291Z,63.36
2023-07-01T11:01:01.274Z,64.89
2023-07-01T11:02:01.314Z,65.39
2023-07-01T11:03:01.306Z,66.06
2023-07-01T11:04:01.249Z,65.36
2023-07-01T11:05:01.311Z,66.66
2023-07-01T11:06:01.211Z,66.16
2023-07-01T11:07:01.180Z,64.86
2023-07-01T11:08:01.172Z,66.26
2023-07-01T11:09:01.158Z,65.36
2023-07-01T11:10:01.280Z,65.56
2023-07-01T11:11:01.137Z,66.76
2023-07-01T11:12:01.172Z,65.99
2023-07-01T11:13:01.132Z,66.19
2023-07-01T11:14:01.140Z,67.09
2023-07-01T11:15:01.120Z,65.79
2023-07-01T11:16:01.145Z,65.89
2023-07-01T11:17:01.202Z,65.49
2023-07-01T11:18:01.122Z,65.99
2023-07-01T11:19:01.030Z,65.79
2023-07-01T11:20:01.023Z,66.89
2023-07-01T11:21:01.006Z,66.13
2023-07-01T11:22:01.001Z,66.72
2023-07-01T11:23:00.974Z,67.82
2023-07-01T11:24:01.083Z,67.72
2023-07-01T11:25:00.947Z,67.43
2023-07-01T11:26:00.970Z,67.13
2023-07-01T11:27:00.946Z,68.32
2023-07-01T11:28:00.958Z,68.73
2023-07-01T11:29:00.939Z,68.13
2023-07-01T11:30:00.913Z,69.32
2023-07-01T11:31:00.897Z,68.66
2023-07-01T11:32:01.033Z,68.46
2023-07-01T11:33:00.940Z,69.09
2023-07-01T11:34:00.886Z,69.89
2023-07-01T11:35:00.820Z,68.99
2023-07-01T11:36:00.821Z,68.79
2023-07-01T11:37:00.888Z,69.59
2023-07-01T11:38:00.867Z,69.69
2023-07-01T11:39:00.779Z,68.19
2023-07-01T11:40:00.807Z,68.99
2023-07-01T11:41:00.821Z,69.59
2023-07-01T11:42:00.781Z,69.49
2023-07-01T11:43:00.733Z,69.19
2023-07-01T11:44:00.713Z,68.59
2023-07-01T11:45:00.705Z,68.69
2023-07-01T11:46:00.766Z,68.82
2023-07-01T11:47:00.687Z,68.99
2023-07-01T11:48:00.737Z,69.29
2023-07-01T11:49:00.659Z,69.89
2023-07-01T11:50:00.692Z,71.46
2023-07-01T11:51:00.663Z,69.56
2023-07-01T11:52:00.635Z,69.46
2023-07-01T11:53:00.606Z,69.86
2023-07-01T11:54:00.607Z,70.26
2023-07-01T11:55:00.580Z,70.32
2023-07-01T11:56:00.559Z,70.23
2023-07-01T11:57:00.530Z,69.32
2023-07-01T11:58:00.532Z,69.59
2023-07-01T11:59:01.767Z,68.29
2023-07-01T12:00:00.630Z,69.09
2023-07-01T12:01:00.523Z,69.46
2023-07-01T12:02:00.574Z,69.36
2023-07-01T12:03:00.498Z,69.46
2023-07-01T12:04:00.525Z,71.19
2023-07-01T12:05:00.548Z,72.49
2023-07-01T12:06:00.475Z,69.93
2023-07-01T12:07:01.760Z,71.46
2023-07-01T12:08:00.419Z,73.43
2023-07-01T12:09:08.238Z,73.83
2023-07-01T12:10:01.409Z,74.53
2023-07-01T12:11:00.380Z,72.63
2023-07-01T12:12:00.333Z,74.06
2023-07-01T12:13:01.721Z,76.40
2023-07-01T12:14:00.330Z,75.80
2023-07-01T12:15:00.362Z,76.70
2023-07-01T12:16:00.299Z,75.70
2023-07-01T12:17:00.294Z,76.70
2023-07-01T12:18:00.296Z,77.10
2023-07-01T12:19:01.664Z,76.80
2023-07-01T12:20:00.550Z,76.10
2023-07-01T12:21:00.228Z,77.00
2023-07-01T12:22:00.291Z,76.30
2023-07-01T12:23:00.231Z,76.60
2023-07-01T12:24:00.217Z,76.50
2023-07-01T12:25:03.403Z,78.06
2023-07-01T12:26:00.168Z,74.76
2023-07-01T12:27:00.141Z,73.90
2023-07-01T12:28:00.135Z,74.30
2023-07-01T12:29:00.202Z,74.40
2023-07-01T12:30:00.207Z,73.90
2023-07-01T12:31:00.244Z,74.30
2023-07-01T12:32:00.115Z,75.00
2023-07-01T12:33:00.161Z,74.20
2023-07-01T12:34:00.056Z,74.20
2023-07-01T12:35:00.047Z,73.50
2023-07-01T12:36:00.017Z,73.80
2023-07-01T12:37:00.046Z,74.20
2023-07-01T12:37:59.998Z,73.70
2023-07-01T12:38:59.997Z,74.40
2023-07-01T12:39:59.970Z,74.60
2023-07-01T12:41:00.001Z,74.00
2023-07-01T12:41:59.973Z,74.33
2023-07-01T12:43:00.002Z,75.30
2023-07-01T12:44:00.024Z,74.23
2023-07-01T12:44:59.931Z,77.14
2023-07-01T12:45:59.918Z,75.04
2023-07-01T12:46:59.905Z,74.13
2023-07-01T12:47:59.985Z,74.43
2023-07-01T12:49:02.229Z,74.67
2023-07-01T12:50:02.647Z,74.84
2023-07-01T12:51:07.490Z,74.84
2023-07-01T12:52:06.137Z,75.54